LOWILCLK

Guest
Details From LOWI - Innsbruck Kranebitten
To LCLK - Larnaca
Flight Number -
Tags decoded
Created
Modified
Stats Distance 1,284 nm / 2,379 km
Max Altitude 0 ft / 0 m
Waypoints 9
Social Downloads 0
Likes 0
Share VATSIM

Download

Looking for another format? Having issues loading an existing format? Contact us
Advertisement - Login to hide

Notes

Requested: LOWI LIZUM KFT VAL CRD AYT PHA13 LOSOS LCLK

Route

LOWI LIZUM KFT VAL CRD AYT PHA13 LOSOS LCLK

ID Type Via Altitude Latitude Longitude Leg Dist Tot Dist Heading (true) Name
O LOWI APT - 0 ft / 0 m 47.26023˚ 11.34397˚ - 0 nm - Innsbruck Kranebitten
LIZUM FIX - 0 ft / 0 m 47.11507˚ 11.75604˚ 18 nm 18 nm 117° / 118° -
KFT VOR - 0 ft / 0 m 46.59758˚ 14.56232˚ 119 nm 138 nm 104° / 106° KLAGENFURT VOR-DME
VAL NDB - 0 ft / 0 m 44.32119˚ 19.87506˚ 262 nm 400 nm 120° / 123° VALJEVO NDB
CRD NDB - 0 ft / 0 m 37.78972˚ 29.70417˚ 592 nm 993 nm 128° / 135° CARDAK NDB
AYT VOR - 0 ft / 0 m 36.92139˚ 30.79694˚ 73 nm 1066 nm 135° / 135° ANTALYA VOR-DME
PHA13 FIX - 0 ft / 0 m 34.78500˚ 32.26000˚ 146 nm 1213 nm 151° / 151° -
LOSOS FIX - 0 ft / 0 m 34.71000˚ 33.37000˚ 54 nm 1268 nm 94° / 95° -
O LCLK APT - 0 ft / 0 m 34.87512˚ 33.62483˚ 16 nm 1284 nm 52° / 52° Larnaca

Altitude Profile

Advertisement - Login to hide

Weather


0- 5 10 15 20 25 30 35+ Temperature / ° C

Clouds and Precipitation
Forecast for 2017-12-13 12:00 UTC. Updated 9 minutes ago

Ground ~20,000 ft ~40,000 ft Winds

LOWI

Details ICAO LOWI (INN)
Name Innsbruck Kranebitten
Region Austria
Timezone Europe/Vienna (UTC+1.0)
Stats Elevation 1,906 ft / 581 m (AMSL)
Location 47.260226° 11.343967°
Runways 1
Magnetic Variation 3.019° E

METAR

LOWI 130850Z 27006KT 9999 FEW003 SCT010 M01/M04 Q1019 R08/19//95 NOSIG

Decode

TAF

TAF LOWI 130515Z 1306/1406 VRB02KT 9999 FEW005 BKN018 TX03/1313Z TNM01/1306Z TEMPO 1306/1309 7000 FEW003 BKN008 BECMG 1309/1311 09005KT FEW030 SCT300 BECMG 1400/1402 27010KT FEW020 SCT060 BKN120 TEMPO 1402/1406 -SNRA

Decode

Departure Runways

ID Width Length Bearing (true) Bearing (mag) Surface Threshold Offset Overrun Length
08 148 ft / 45 m 6,545 ft / 1,995 m 81.02° 78.00° Asphalt 338 ft / 103 m 0 ft / 0 m
26 148 ft / 45 m 6,545 ft / 1,995 m 261.04° 258.02° Asphalt 0 ft / 0 m 0 ft / 0 m

LCLK

Details ICAO LCLK (LCA)
Name Larnaca
Region Cyprus
Timezone Asia/Nicosia (UTC+2.0)
Stats Elevation 8 ft / 2 m (AMSL)
Location 34.875115° 33.624832°
Runways 1
Magnetic Variation 4.990° E

METAR

LCLK 130900Z 34014KT CAVOK 21/11 Q1017 NOSIG

Decode

TAF

TAF LCLK 130530Z 1306/1406 32009KT 9999 FEW030= TAF LCPH 130530Z 1306/1406 03006KT 9999 FEW030 BECMG 1306/1309 30015KT BECMG 1316/1320 01007KT

Decode

Destination Runways

ID Width Length Bearing (true) Bearing (mag) Surface Threshold Offset Overrun Length
04 148 ft / 45 m 9,771 ft / 2,978 m 45.15° 40.16° Asphalt 0 ft / 0 m 210 ft / 64 m
22 148 ft / 45 m 9,771 ft / 2,978 m 225.17° 220.18° Asphalt 575 ft / 175 m 0 ft / 0 m

Approach Navaids

Runway Type Ident Frequency Range Bearing (true) Bearing (mag) Slope Elevation
22 Localiser ILC 110.30 MHz 18 nm / 33 km 225.17° 220.18° - 8 ft / 2 m (AMSL)
22 Glidescope ILC 110.30 MHz 10 nm / 19 km 225.16° 220.17° 2.75° 24 ft / 7 m (AMSL)
22 DME ILC 110.30 MHz 18 nm / 33 km - - - 20 ft / 6 m (AMSL)

Popular Alternatives